createdAt,value
2022-12-08T00:00:55.250Z,19.60
2022-12-08T00:03:22.300Z,19.02
2022-12-08T00:06:08.309Z,20.30
2022-12-08T00:08:53.857Z,20.83
2022-12-08T00:11:20.664Z,19.13
2022-12-08T00:13:47.491Z,19.85
2022-12-08T00:16:14.344Z,20.45
2022-12-08T00:18:41.191Z,19.33
2022-12-08T00:21:08.081Z,19.83
2022-12-08T00:23:34.976Z,19.23
2022-12-08T00:26:03.797Z,18.85
2022-12-08T00:28:31.694Z,18.65
2022-12-08T00:30:58.467Z,18.67
2022-12-08T00:33:25.450Z,19.25
2022-12-08T00:35:52.424Z,18.95
2022-12-08T00:38:19.243Z,20.05
2022-12-08T00:40:46.977Z,20.73
2022-12-08T00:43:14.601Z,20.27
2022-12-08T00:45:41.463Z,19.60
2022-12-08T00:48:08.249Z,20.95
2022-12-08T00:50:35.085Z,20.50
2022-12-08T00:53:02.054Z,20.35
2022-12-08T00:55:28.796Z,21.33
2022-12-08T00:57:55.575Z,21.55
2022-12-08T01:00:22.614Z,21.85
2022-12-08T01:02:49.445Z,21.83
2022-12-08T01:05:16.495Z,22.70
2022-12-08T01:07:52.549Z,22.40
2022-12-08T01:10:19.437Z,23.40
2022-12-08T01:12:46.297Z,23.48
2022-12-08T01:15:13.066Z,22.83
2022-12-08T01:17:39.916Z,21.80
2022-12-08T01:20:07.480Z,21.58
2022-12-08T01:22:36.087Z,22.25
2022-12-08T01:25:04.357Z,22.90
2022-12-08T01:27:31.127Z,22.85
2022-12-08T01:29:57.933Z,24.55
2022-12-08T01:32:24.796Z,22.88
2022-12-08T01:34:51.583Z,22.83
2022-12-08T01:37:18.391Z,22.10
2022-12-08T01:39:45.127Z,22.05
2022-12-08T01:42:22.348Z,22.27
2022-12-08T01:45:35.992Z,21.15
2022-12-08T01:48:11.575Z,21.83
2022-12-08T01:50:40.726Z,21.02
2022-12-08T01:53:12.465Z,20.75
2022-12-08T01:55:43.743Z,19.95
2022-12-08T01:58:37.884Z,20.13
2022-12-08T02:01:05.060Z,21.50
2022-12-08T02:03:42.004Z,20.55
2022-12-08T02:06:09.910Z,20.20
2022-12-08T02:08:40.218Z,20.08
2022-12-08T02:11:11.193Z,20.33
2022-12-08T02:13:38.593Z,21.80
2022-12-08T02:16:12.480Z,20.92
2022-12-08T02:19:31.111Z,16.60
2022-12-08T02:22:01.279Z,21.45
2022-12-08T02:24:34.014Z,21.85
2022-12-08T02:27:03.792Z,22.23
2022-12-08T02:29:49.468Z,22.35
2022-12-08T02:32:41.054Z,21.98
2022-12-08T02:35:35.562Z,22.15
2022-12-08T02:38:08.265Z,22.63
2022-12-08T02:40:53.170Z,22.83
2022-12-08T02:43:38.450Z,22.73
2022-12-08T02:48:38.292Z,22.83
2022-12-08T02:51:05.953Z,24.50
2022-12-08T02:53:35.155Z,25.02
2022-12-08T02:56:17.076Z,25.88
2022-12-08T02:59:21.783Z,24.77
2022-12-08T03:02:20.684Z,25.13
2022-12-08T03:05:05.109Z,25.13
2022-12-08T03:07:52.126Z,23.55
2022-12-08T03:10:42.034Z,25.75
2022-12-08T03:13:22.283Z,24.92
2022-12-08T03:15:51.045Z,25.13
2022-12-08T03:18:23.314Z,24.65
2022-12-08T03:20:51.094Z,25.48
2022-12-08T03:23:19.401Z,25.85
2022-12-08T03:26:05.017Z,25.42
2022-12-08T03:28:32.158Z,25.48
2022-12-08T03:31:05.174Z,25.90
2022-12-08T03:33:36.747Z,24.77
2022-12-08T03:36:07.153Z,25.60
2022-12-08T03:38:39.004Z,24.65
2022-12-08T03:41:21.174Z,24.00
2022-12-08T03:43:53.089Z,23.63
2022-12-08T03:48:52.392Z,23.15
2022-12-08T03:51:19.694Z,24.23
2022-12-08T03:53:47.022Z,24.15
2022-12-08T03:56:25.701Z,24.27
2022-12-08T03:58:53.294Z,24.73
2022-12-08T04:01:20.927Z,23.60
2022-12-08T04:03:47.888Z,23.33
2022-12-08T04:06:15.021Z,25.13
2022-12-08T04:08:41.883Z,23.08
2022-12-08T04:11:09.056Z,23.35
2022-12-08T04:13:37.823Z,21.95
2022-12-08T04:16:05.361Z,22.10
2022-12-08T04:18:33.251Z,22.85
2022-12-08T04:21:00.041Z,23.05
2022-12-08T04:23:27.168Z,22.30
2022-12-08T04:25:54.579Z,24.42
2022-12-08T04:28:21.831Z,22.73
2022-12-08T04:30:49.868Z,22.40
2022-12-08T04:33:17.252Z,23.52
2022-12-08T04:35:44.214Z,22.85
2022-12-08T04:38:11.229Z,22.52
2022-12-08T04:40:38.330Z,22.63
2022-12-08T04:43:05.244Z,22.10
2022-12-08T04:45:32.788Z,21.73
2022-12-08T04:48:00.441Z,21.42
2022-12-08T04:50:28.103Z,22.13
2022-12-08T04:52:54.911Z,21.58
2022-12-08T04:55:21.651Z,21.70
2022-12-08T04:57:48.518Z,20.98
2022-12-08T05:00:15.640Z,20.30
2022-12-08T05:02:42.474Z,19.80
2022-12-08T05:05:09.848Z,20.92
2022-12-08T05:07:36.735Z,19.60
2022-12-08T05:10:04.599Z,19.85
2022-12-08T05:12:31.645Z,19.75
2022-12-08T05:14:58.451Z,18.90
2022-12-08T05:17:25.243Z,19.58
2022-12-08T05:19:52.033Z,18.75
2022-12-08T05:22:18.926Z,18.42
2022-12-08T05:24:47.574Z,17.85
2022-12-08T05:27:15.251Z,18.48
2022-12-08T05:29:42.430Z,16.45
2022-12-08T05:32:09.655Z,17.38
2022-12-08T05:34:36.556Z,17.38
2022-12-08T05:37:03.375Z,17.20
2022-12-08T05:39:30.233Z,17.27
2022-12-08T05:41:57.061Z,17.05
2022-12-08T05:44:23.880Z,16.83
2022-12-08T05:46:50.781Z,17.08
2022-12-08T05:49:18.111Z,17.27
2022-12-08T05:51:44.904Z,17.95
2022-12-08T05:54:11.659Z,17.58
2022-12-08T05:56:38.447Z,19.15
2022-12-08T05:59:08.906Z,18.67
2022-12-08T06:01:35.971Z,21.25
2022-12-08T06:04:03.988Z,20.48
2022-12-08T06:06:34.257Z,20.98
2022-12-08T06:09:03.634Z,22.65
2022-12-08T06:11:31.884Z,20.83
2022-12-08T06:13:59.839Z,19.98
2022-12-08T06:16:28.364Z,20.50
2022-12-08T06:18:55.684Z,20.55
2022-12-08T06:21:23.267Z,20.73
2022-12-08T06:23:52.356Z,21.13
2022-12-08T06:26:20.295Z,21.90
2022-12-08T06:28:49.358Z,23.02
2022-12-08T06:31:19.897Z,23.10
2022-12-08T06:33:47.319Z,23.77
2022-12-08T06:36:15.842Z,23.33
2022-12-08T06:38:43.978Z,24.83
2022-12-08T06:41:15.159Z,24.70
2022-12-08T06:43:42.583Z,25.23
2022-12-08T06:46:13.005Z,25.75
2022-12-08T06:48:40.266Z,25.42
2022-12-08T06:51:12.890Z,25.23
2022-12-08T06:53:40.772Z,26.52
2022-12-08T06:56:08.120Z,26.25
2022-12-08T06:58:35.687Z,26.65
2022-12-08T07:01:06.642Z,25.00
2022-12-08T07:03:34.132Z,26.92
2022-12-08T07:06:04.016Z,25.25
2022-12-08T07:08:32.177Z,25.58
2022-12-08T07:10:59.259Z,26.30
2022-12-08T07:13:26.354Z,26.77
2022-12-08T07:15:53.499Z,25.58
2022-12-08T07:18:20.406Z,25.05
2022-12-08T07:20:47.460Z,24.45
2022-12-08T07:23:14.363Z,25.23
2022-12-08T07:25:41.162Z,24.92
2022-12-08T07:28:09.882Z,24.83
2022-12-08T07:30:36.907Z,25.30
2022-12-08T07:33:06.686Z,24.33
2022-12-08T07:35:35.019Z,23.75
2022-12-08T07:38:02.595Z,23.33
2022-12-08T07:40:29.423Z,23.83
2022-12-08T07:42:56.240Z,23.85
2022-12-08T07:45:29.804Z,24.60
2022-12-08T07:47:58.224Z,24.90
2022-12-08T07:50:25.027Z,24.42
2022-12-08T07:52:51.772Z,23.80
2022-12-08T07:55:18.673Z,24.45
2022-12-08T07:57:45.622Z,25.65
2022-12-08T08:00:12.971Z,25.10
2022-12-08T08:02:40.221Z,24.55
2022-12-08T08:05:08.036Z,26.00
2022-12-08T08:07:35.346Z,24.70
2022-12-08T08:10:02.355Z,25.65
2022-12-08T08:12:32.019Z,24.52
2022-12-08T08:15:01.389Z,28.05
2022-12-08T08:17:29.031Z,24.92
2022-12-08T08:19:56.350Z,26.02
2022-12-08T08:22:23.128Z,23.70
2022-12-08T08:24:49.988Z,25.55
2022-12-08T08:27:16.860Z,23.27
2022-12-08T08:29:43.606Z,23.65
2022-12-08T08:32:10.684Z,24.48
2022-12-08T08:34:37.636Z,23.80
2022-12-08T08:37:04.469Z,24.52
2022-12-08T08:39:31.944Z,24.73
2022-12-08T08:41:59.002Z,23.90
2022-12-08T08:44:25.840Z,21.05
2022-12-08T08:46:52.706Z,18.00
2022-12-08T08:49:20.115Z,14.43
2022-12-08T08:51:47.132Z,14.95
2022-12-08T08:54:13.981Z,15.57
2022-12-08T08:56:40.679Z,15.55
2022-12-08T08:59:07.555Z,15.88
2022-12-08T09:01:34.433Z,16.95
2022-12-08T09:04:01.636Z,16.70
2022-12-08T09:06:28.780Z,14.55
2022-12-08T09:08:55.832Z,15.02
2022-12-08T09:11:23.536Z,16.23
2022-12-08T09:13:52.364Z,16.25
2022-12-08T09:16:19.867Z,16.70
2022-12-08T09:18:48.268Z,16.27
2022-12-08T09:21:20.409Z,15.23
2022-12-08T09:23:47.217Z,15.88
2022-12-08T09:26:14.050Z,14.90
2022-12-08T09:28:46.306Z,14.48
2022-12-08T09:31:14.516Z,14.88
2022-12-08T09:33:41.710Z,13.27
2022-12-08T09:36:09.089Z,12.05
2022-12-08T09:38:37.011Z,11.60
2022-12-08T09:41:11.249Z,11.88
2022-12-08T09:44:02.134Z,11.65
2022-12-08T09:46:32.226Z,11.45
2022-12-08T09:49:00.678Z,11.32
2022-12-08T09:51:35.076Z,11.68
2022-12-08T09:54:12.689Z,12.07
2022-12-08T09:56:42.154Z,10.88
2022-12-08T09:59:08.873Z,10.73
2022-12-08T10:01:41.748Z,10.35
2022-12-08T10:04:21.006Z,9.05
2022-12-08T10:06:59.183Z,8.95
2022-12-08T10:09:37.953Z,8.77
2022-12-08T10:12:20.449Z,8.88
2022-12-08T10:15:22.613Z,8.68
2022-12-08T10:17:51.880Z,9.10
2022-12-08T10:20:24.999Z,9.57
2022-12-08T10:23:14.677Z,10.25
2022-12-08T10:25:49.243Z,10.10
2022-12-08T10:28:16.248Z,10.60
2022-12-08T10:30:43.147Z,11.07
2022-12-08T10:33:16.823Z,10.68
2022-12-08T10:35:49.428Z,9.45
2022-12-08T10:38:31.667Z,10.35
2022-12-08T10:41:18.312Z,10.90
2022-12-08T10:43:49.933Z,10.20
2022-12-08T10:46:20.555Z,10.80
2022-12-08T10:49:07.309Z,11.07
2022-12-08T10:51:34.021Z,11.90
2022-12-08T10:54:01.429Z,11.95
2022-12-08T10:56:30.996Z,11.45
2022-12-08T10:59:18.773Z,11.35
2022-12-08T11:01:51.036Z,11.85
2022-12-08T11:04:26.185Z,12.88
2022-12-08T11:09:19.856Z,11.38
2022-12-08T11:11:52.867Z,11.65
2022-12-08T11:14:29.109Z,10.85
2022-12-08T11:17:16.970Z,11.27
2022-12-08T11:20:02.750Z,11.27
2022-12-08T11:22:37.711Z,10.93
2022-12-08T11:25:07.880Z,10.85
2022-12-08T11:27:37.031Z,11.35
2022-12-08T11:30:17.887Z,11.38
2022-12-08T11:32:49.907Z,11.57
2022-12-08T11:35:35.118Z,10.35
2022-12-08T11:38:21.243Z,11.98
2022-12-08T11:40:55.763Z,11.55
2022-12-08T11:43:25.582Z,11.00
2022-12-08T11:46:05.028Z,11.70
2022-12-08T11:49:15.631Z,11.82
2022-12-08T11:52:15.140Z,12.68
2022-12-08T11:54:56.639Z,12.40
2022-12-08T11:57:26.827Z,13.25
2022-12-08T11:59:57.188Z,13.68
2022-12-08T12:02:30.256Z,13.85
2022-12-08T12:05:08.607Z,13.43
2022-12-08T12:07:47.545Z,13.82
2022-12-08T12:10:37.505Z,13.35
2022-12-08T12:13:41.961Z,14.23
2022-12-08T12:16:23.307Z,14.98
2022-12-08T12:18:54.212Z,14.68
2022-12-08T12:21:35.283Z,14.65
2022-12-08T12:24:11.179Z,14.90
2022-12-08T12:26:49.169Z,14.90
2022-12-08T12:29:23.732Z,14.55
2022-12-08T12:31:55.773Z,15.30
2022-12-08T12:34:33.094Z,15.05
2022-12-08T12:37:12.555Z,15.00
2022-12-08T12:40:11.536Z,15.25
2022-12-08T12:42:51.604Z,14.27
2022-12-08T12:45:18.410Z,14.20
2022-12-08T12:47:56.935Z,14.70
2022-12-08T12:50:33.175Z,14.02
2022-12-08T12:53:18.882Z,13.85
2022-12-08T12:55:45.651Z,13.23
2022-12-08T12:58:27.680Z,13.88
2022-12-08T13:01:12.882Z,14.20
2022-12-08T13:06:24.560Z,12.68
2022-12-08T13:08:54.732Z,13.65
2022-12-08T13:11:22.510Z,12.95
2022-12-08T13:13:57.692Z,12.82
2022-12-08T13:16:32.012Z,12.73
2022-12-08T13:19:04.108Z,12.27
2022-12-08T13:21:37.771Z,11.95
2022-12-08T13:24:10.840Z,12.35
2022-12-08T13:27:11.028Z,11.75
2022-12-08T13:29:39.080Z,11.73
2022-12-08T13:32:09.648Z,11.63
2022-12-08T13:34:57.962Z,11.70
2022-12-08T13:37:54.467Z,14.07
2022-12-08T13:40:25.364Z,18.30
2022-12-08T13:42:58.919Z,15.88
2022-12-08T13:57:30.652Z,12.35
2022-12-08T14:00:13.921Z,11.48
2022-12-08T14:02:47.721Z,12.27
2022-12-08T14:05:19.024Z,8.20
2022-12-08T14:07:51.470Z,11.55
2022-12-08T14:10:26.197Z,10.77
2022-12-08T14:12:58.112Z,11.20
2022-12-08T14:15:26.207Z,10.32
2022-12-08T14:17:56.286Z,10.40
2022-12-08T14:20:28.210Z,10.60
2022-12-08T14:22:55.787Z,9.40
2022-12-08T14:25:23.831Z,8.60
2022-12-08T14:27:56.424Z,7.97
2022-12-08T14:30:30.634Z,8.55
2022-12-08T14:33:02.943Z,9.13
2022-12-08T14:35:33.107Z,16.08
2022-12-08T14:38:02.303Z,7.80
2022-12-08T14:40:37.974Z,8.35
2022-12-08T14:43:08.103Z,9.02
2022-12-08T14:46:01.418Z,9.88
2022-12-08T14:48:42.787Z,10.18
2022-12-08T14:51:25.836Z,11.25
2022-12-08T14:53:54.955Z,9.45
2022-12-08T14:56:31.763Z,10.40
2022-12-08T14:59:17.501Z,11.70
2022-12-08T15:01:45.240Z,10.85
2022-12-08T15:04:17.743Z,10.30
2022-12-08T15:07:07.691Z,10.40
2022-12-08T15:09:44.274Z,9.85
2022-12-08T15:12:14.170Z,10.10
2022-12-08T15:14:43.944Z,11.90
2022-12-08T15:17:41.585Z,12.30
2022-12-08T15:20:43.984Z,12.40
2022-12-08T15:23:29.358Z,11.48
2022-12-08T15:28:29.752Z,8.85
2022-12-08T15:30:59.106Z,6.70
2022-12-08T15:33:26.693Z,9.93
2022-12-08T15:35:53.883Z,10.20
2022-12-08T15:38:29.176Z,9.65
2022-12-08T15:40:58.819Z,9.57
2022-12-08T15:43:25.806Z,9.15
2022-12-08T15:45:59.613Z,9.45
2022-12-08T15:48:29.052Z,8.10
2022-12-08T15:50:56.868Z,10.75
2022-12-08T15:53:23.791Z,11.02
2022-12-08T15:56:26.340Z,10.45
2022-12-08T15:58:53.661Z,10.70
2022-12-08T16:01:21.647Z,10.27
2022-12-08T16:09:33.561Z,9.93
2022-12-08T16:12:19.607Z,9.75
2022-12-08T16:15:47.015Z,10.73
2022-12-08T16:17:37.813Z,10.15
2022-12-08T16:20:07.557Z,10.45
2022-12-08T16:25:23.412Z,9.80
2022-12-08T16:28:12.319Z,9.32
2022-12-08T16:30:40.913Z,9.88
2022-12-08T16:33:07.734Z,11.57
2022-12-08T16:35:34.737Z,12.27
2022-12-08T16:38:01.646Z,11.38
2022-12-08T16:40:28.464Z,10.98
2022-12-08T16:42:55.334Z,12.23
2022-12-08T16:45:24.965Z,15.50
2022-12-08T16:47:55.996Z,17.08
2022-12-08T16:50:34.394Z,15.30
2022-12-08T16:53:04.743Z,16.08
2022-12-08T16:55:32.073Z,16.45
2022-12-08T16:57:59.247Z,15.88
2022-12-08T17:00:28.536Z,14.45
2022-12-08T17:02:56.068Z,15.85
2022-12-08T17:05:25.430Z,15.68
2022-12-08T17:07:53.822Z,17.98
2022-12-08T17:10:27.368Z,18.38
2022-12-08T17:12:56.004Z,17.50
2022-12-08T17:15:25.582Z,15.95
2022-12-08T17:17:52.963Z,17.20
2022-12-08T17:20:22.535Z,17.67
2022-12-08T17:22:49.472Z,18.80
2022-12-08T17:25:16.325Z,20.10
2022-12-08T17:27:43.408Z,18.55
2022-12-08T17:30:12.644Z,22.88
2022-12-08T17:32:39.685Z,21.35
2022-12-08T17:35:07.745Z,21.17
2022-12-08T17:37:35.222Z,23.05
2022-12-08T17:40:02.106Z,21.15
2022-12-08T17:42:28.943Z,22.10
2022-12-08T17:44:56.131Z,22.92
2022-12-08T17:47:23.123Z,23.67
2022-12-08T17:49:49.998Z,24.95
2022-12-08T17:52:17.031Z,26.08
2022-12-08T17:54:44.387Z,22.80
2022-12-08T17:57:11.319Z,21.80
2022-12-08T17:59:38.196Z,20.85
2022-12-08T18:02:05.483Z,19.88
2022-12-08T18:04:32.344Z,17.98
2022-12-08T18:07:01.451Z,18.75
2022-12-08T18:09:31.278Z,20.25
2022-12-08T18:11:58.152Z,20.77
2022-12-08T18:14:25.683Z,21.63
2022-12-08T18:16:55.113Z,23.63
2022-12-08T18:19:22.555Z,21.70
2022-12-08T18:21:49.531Z,22.95
2022-12-08T18:24:22.432Z,22.52
2022-12-08T18:26:52.870Z,21.70
2022-12-08T18:29:21.425Z,20.73
2022-12-08T18:31:48.541Z,19.08
2022-12-08T18:34:15.475Z,20.02
2022-12-08T18:36:42.464Z,20.20
2022-12-08T18:39:24.419Z,18.85
2022-12-08T18:41:52.537Z,16.58
2022-12-08T18:44:19.964Z,18.50
2022-12-08T18:46:47.120Z,19.00
2022-12-08T18:49:17.811Z,17.60
2022-12-08T18:51:45.315Z,18.73
2022-12-08T18:54:12.897Z,18.25
2022-12-08T18:56:39.907Z,19.30
2022-12-08T18:59:10.553Z,18.40
2022-12-08T19:01:39.831Z,18.52
2022-12-08T19:06:57.337Z,21.80
2022-12-08T19:09:28.530Z,21.33
2022-12-08T19:11:55.952Z,20.58
2022-12-08T19:14:28.254Z,19.67
2022-12-08T19:16:59.540Z,22.30
2022-12-08T19:19:27.930Z,20.95
2022-12-08T19:21:58.297Z,23.38
2022-12-08T19:24:26.157Z,24.45
2022-12-08T19:26:53.491Z,24.50
2022-12-08T19:29:20.905Z,27.30
2022-12-08T19:31:48.467Z,23.92
2022-12-08T19:34:18.215Z,26.05
2022-12-08T19:36:48.071Z,27.13
2022-12-08T19:39:39.715Z,37.85
2022-12-08T19:42:33.594Z,31.67
2022-12-08T19:45:08.415Z,29.80
2022-12-08T19:47:35.848Z,31.90
2022-12-08T19:50:21.781Z,31.80
2022-12-08T19:52:48.838Z,29.73
2022-12-08T19:55:16.174Z,30.60
2022-12-08T19:57:43.073Z,27.30
2022-12-08T20:00:12.713Z,25.98
2022-12-08T20:02:41.942Z,28.17
2022-12-08T20:05:12.568Z,26.65
2022-12-08T20:07:40.606Z,26.27
2022-12-08T20:10:12.923Z,26.00
2022-12-08T20:12:39.904Z,26.48
2022-12-08T20:15:10.340Z,25.63
2022-12-08T20:17:40.091Z,26.27
2022-12-08T20:20:08.617Z,24.15
2022-12-08T20:22:36.226Z,23.27
2022-12-08T20:25:04.459Z,23.52
2022-12-08T20:27:31.364Z,23.33
2022-12-08T20:29:58.385Z,24.95
2022-12-08T20:32:25.421Z,25.02
2022-12-08T20:34:52.584Z,21.85
2022-12-08T20:37:19.915Z,20.83
2022-12-08T20:39:46.966Z,19.98
2022-12-08T20:42:14.064Z,18.48
2022-12-08T20:44:44.757Z,19.02
2022-12-08T20:47:13.021Z,18.85
2022-12-08T20:49:40.339Z,19.17
2022-12-08T20:52:08.553Z,23.13
2022-12-08T20:54:37.644Z,21.15
2022-12-08T20:57:04.932Z,22.65
2022-12-08T20:59:32.120Z,21.40
2022-12-08T21:02:00.788Z,21.65
2022-12-08T21:04:28.118Z,23.23
2022-12-08T21:06:55.160Z,20.77
2022-12-08T21:09:22.163Z,22.38
2022-12-08T21:11:49.301Z,24.85
2022-12-08T21:14:16.520Z,23.98
2022-12-08T21:16:44.174Z,23.15
2022-12-08T21:19:12.511Z,23.08
2022-12-08T21:21:40.246Z,23.88
2022-12-08T21:24:08.408Z,22.67
2022-12-08T21:26:35.798Z,22.10
2022-12-08T21:29:02.986Z,21.35
2022-12-08T21:31:32.109Z,23.77
2022-12-08T21:34:00.171Z,23.65
2022-12-08T21:36:27.463Z,20.42
2022-12-08T21:38:55.251Z,22.23
2022-12-08T21:41:42.139Z,24.77
2022-12-08T21:44:12.613Z,25.90
2022-12-08T21:46:39.663Z,24.55
2022-12-08T21:49:07.097Z,28.45
2022-12-08T21:51:37.842Z,28.63
2022-12-08T21:54:05.042Z,32.00
2022-12-08T21:56:32.244Z,29.45
2022-12-08T21:58:59.341Z,30.33
2022-12-08T22:01:28.153Z,25.92
2022-12-08T22:03:55.340Z,24.75
2022-12-08T22:06:24.229Z,27.60
2022-12-08T22:08:51.399Z,26.05
2022-12-08T22:11:19.330Z,25.30
2022-12-08T22:13:46.374Z,23.83
2022-12-08T22:16:14.980Z,23.42
2022-12-08T22:18:42.506Z,22.38
2022-12-08T22:21:12.081Z,21.10
2022-12-08T22:23:39.578Z,20.38
2022-12-08T22:26:07.556Z,21.50
2022-12-08T22:28:37.123Z,21.55
2022-12-08T22:31:16.685Z,21.02
2022-12-08T22:33:44.289Z,21.80
2022-12-08T22:36:19.123Z,20.42
2022-12-08T22:38:46.445Z,20.80
2022-12-08T22:41:13.847Z,19.95
2022-12-08T22:43:41.493Z,19.30
2022-12-08T22:46:12.095Z,22.80
2022-12-08T22:48:39.640Z,21.77
2022-12-08T22:51:09.592Z,21.02
2022-12-08T22:53:36.646Z,22.70
2022-12-08T22:56:08.795Z,21.55
2022-12-08T22:58:36.400Z,20.55
2022-12-08T23:01:03.683Z,21.98
2022-12-08T23:03:31.378Z,19.80
2022-12-08T23:05:58.551Z,23.75
2022-12-08T23:08:25.712Z,22.25
2022-12-08T23:10:54.269Z,22.55
2022-12-08T23:13:21.633Z,22.33
2022-12-08T23:15:48.897Z,22.40
2022-12-08T23:18:19.175Z,23.30
2022-12-08T23:20:46.999Z,22.58
2022-12-08T23:23:14.228Z,20.23
2022-12-08T23:25:42.120Z,22.20
2022-12-08T23:28:10.427Z,21.70
2022-12-08T23:30:40.154Z,22.63
2022-12-08T23:33:07.124Z,22.90
2022-12-08T23:35:34.080Z,24.27
2022-12-08T23:38:01.262Z,22.60
2022-12-08T23:40:28.279Z,22.08
2022-12-08T23:42:55.519Z,22.33
2022-12-08T23:45:22.688Z,21.92
2022-12-08T23:47:49.538Z,22.30
2022-12-08T23:50:16.519Z,21.63
2022-12-08T23:52:43.563Z,21.08
2022-12-08T23:55:11.199Z,20.92
2022-12-08T23:57:38.649Z,20.92
